Time;durP1;ratioP1;P1;durP2;ratioP2;P2;SDS_P1;SDS_P2;PMS_P1;PMS_P2;Temp;Humidity;BMP_temperature;BMP_pressure;BME280_temperature;BME280_humidity;BME280_pressure;Samples;Min_cycle;Max_cycle;Signal;HPM_P1;HPM_P2
2022/03/16 00:01:57;;;;;;;33.53;17.58;;;;;;;9.85;100.00;100832.34;5099777;28;20038;-64
2022/03/16 00:04:23;;;;;;;39.40;16.73;;;;;;;9.82;100.00;100824.44;5091652;28;20020;-64
2022/03/16 00:06:49;;;;;;;36.95;16.70;;;;;;;9.81;100.00;100824.47;5094737;28;20395;-64
2022/03/16 00:09:15;;;;;;;33.75;17.80;;;;;;;9.81;100.00;100821.81;5094066;28;20036;-64
2022/03/16 00:11:40;;;;;;;30.75;15.35;;;;;;;9.79;100.00;100824.50;5090795;28;20558;-64
2022/03/16 00:14:06;;;;;;;31.95;14.70;;;;;;;9.84;100.00;100824.41;5096435;28;20032;-64
2022/03/16 00:16:31;;;;;;;39.22;16.42;;;;;;;9.84;100.00;100816.44;5101337;28;20042;-64
2022/03/16 00:18:57;;;;;;;30.80;15.38;;;;;;;9.78;100.00;100817.44;5095200;28;20529;-66
2022/03/16 00:21:22;;;;;;;29.45;15.48;;;;;;;9.70;100.00;100819.34;5091771;28;20042;-66
2022/03/16 00:23:48;;;;;;;31.52;15.90;;;;;;;9.63;100.00;100822.09;5098477;28;20076;-66
2022/03/16 00:26:14;;;;;;;33.13;16.55;;;;;;;9.67;100.00;100823.81;5105787;28;20024;-66
2022/03/16 00:28:40;;;;;;;30.50;15.80;;;;;;;9.69;100.00;100825.53;5101662;28;20033;-66
2022/03/16 00:31:05;;;;;;;31.80;14.93;;;;;;;9.67;100.00;100835.31;5100458;28;20429;-66
2022/03/16 00:33:32;;;;;;;32.83;17.17;;;;;;;9.63;100.00;100833.63;5101151;28;20023;-66
2022/03/16 00:35:57;;;;;;;35.33;15.18;;;;;;;9.65;100.00;100837.13;5101767;28;20023;-66
2022/03/16 00:38:23;;;;;;;32.00;15.05;;;;;;;9.62;100.00;100836.31;5106498;28;20034;-66
2022/03/16 00:40:48;;;;;;;30.38;16.73;;;;;;;9.61;100.00;100839.84;5102214;28;20141;-66
2022/03/16 00:43:14;;;;;;;33.10;15.90;;;;;;;9.57;100.00;100836.34;5090254;28;20073;-66
2022/03/16 00:45:40;;;;;;;34.28;16.45;;;;;;;9.59;100.00;100837.22;5092364;28;20099;-65
2022/03/16 00:48:05;;;;;;;34.80;17.17;;;;;;;9.57;100.00;100839.00;5089599;28;20081;-66
2022/03/16 00:50:32;;;;;;;36.88;17.85;;;;;;;9.54;100.00;100836.41;5089853;28;20483;-66
2022/03/16 00:52:58;;;;;;;34.63;17.33;;;;;;;9.46;100.00;100829.44;5092506;28;20036;-66
2022/03/16 00:55:23;;;;;;;40.28;17.10;;;;;;;9.66;100.00;100830.91;5093646;28;20093;-66
2022/03/16 00:57:49;;;;;;;40.78;18.95;;;;;;;9.63;100.00;100828.31;5091097;28;20027;-65
2022/03/16 01:00:14;;;;;;;38.17;17.05;;;;;;;9.69;100.00;100825.53;5090694;28;20022;-66
2022/03/16 01:02:40;;;;;;;40.50;18.17;;;;;;;9.77;100.00;100823.63;5092277;28;20023;-66
2022/03/16 01:05:06;;;;;;;36.53;18.13;;;;;;;9.77;100.00;100826.28;5091355;28;20020;-66
2022/03/16 01:07:31;;;;;;;43.03;19.13;;;;;;;9.80;100.00;100814.75;5091220;28;20034;-66
2022/03/16 01:09:57;;;;;;;41.88;18.38;;;;;;;9.82;100.00;100808.50;5109967;28;20044;-66
2022/03/16 01:12:22;;;;;;;37.22;18.20;;;;;;;9.74;100.00;100799.78;5111575;28;20069;-66
2022/03/16 01:14:48;;;;;;;44.28;20.98;;;;;;;9.85;100.00;100808.44;5110359;28;20020;-66
2022/03/16 01:17:14;;;;;;;43.13;20.08;;;;;;;9.79;100.00;100807.66;5110612;28;20077;-66
2022/03/16 01:19:39;;;;;;;42.83;18.83;;;;;;;9.84;100.00;100798.72;5090774;28;20399;-66
2022/03/16 01:22:05;;;;;;;39.97;19.38;;;;;;;9.87;100.00;100801.31;5090796;28;20391;-66
2022/03/16 01:24:31;;;;;;;38.78;18.85;;;;;;;9.89;100.00;100804.84;5090825;28;20114;-66
2022/03/16 01:26:57;;;;;;;38.78;18.00;;;;;;;9.96;100.00;100800.28;5090797;28;20023;-66
2022/03/16 01:29:26;;;;;;;50.47;20.17;;;;;;;9.91;100.00;100802.16;5090228;28;20042;-66
2022/03/16 01:31:53;;;;;;;38.35;19.15;;;;;;;9.85;100.00;100808.44;5094014;28;20097;-66
2022/03/16 01:34:20;;;;;;;41.50;18.60;;;;;;;9.85;100.00;100796.94;5090113;28;20027;-64
2022/03/16 01:36:46;;;;;;;36.92;18.17;;;;;;;9.83;100.00;100802.28;5090626;28;20123;-66
2022/03/16 01:39:11;;;;;;;42.92;19.08;;;;;;;9.69;100.00;100776.84;5090410;28;20088;-66
2022/03/16 01:41:37;;;;;;;43.08;18.45;;;;;;;9.87;100.00;100798.66;5102559;28;20027;-66
2022/03/16 01:44:03;;;;;;;40.88;19.58;;;;;;;9.88;100.00;100787.16;5110706;28;20035;-66
2022/03/16 01:46:28;;;;;;;49.33;19.08;;;;;;;9.83;100.00;100778.38;5110611;28;20073;-66
2022/03/16 01:48:54;;;;;;;42.22;19.67;;;;;;;9.82;100.00;100787.22;5110112;28;20023;-66
2022/03/16 01:51:21;;;;;;;43.35;19.00;;;;;;;9.85;100.00;100786.31;5107610;28;20098;-66
2022/03/16 01:53:46;;;;;;;41.17;17.80;;;;;;;9.86;100.00;100783.63;5104103;28;20546;-67
2022/03/16 01:56:15;;;;;;;47.20;19.40;;;;;;;9.83;100.00;100778.38;5090442;28;20035;-66
2022/03/16 01:58:41;;;;;;;44.45;19.13;;;;;;;9.83;100.00;100783.69;5090124;28;20391;-66
2022/03/16 02:01:06;;;;;;;41.50;17.83;;;;;;;9.89;100.00;100783.56;5090021;28;20020;-66
2022/03/16 02:03:32;;;;;;;44.15;19.00;;;;;;;9.88;100.00;100784.50;5093051;28;20028;-66
2022/03/16 02:05:57;;;;;;;47.95;19.92;;;;;;;9.92;100.00;100777.31;5107289;28;20024;-66
2022/03/16 02:08:22;;;;;;;45.33;20.00;;;;;;;9.88;100.00;100781.84;5104191;28;20024;-66
2022/03/16 02:10:48;;;;;;;50.72;21.13;;;;;;;9.93;100.00;100787.06;5092899;28;20030;-67
2022/03/16 02:13:13;;;;;;;45.28;19.92;;;;;;;9.93;100.00;100785.28;5110304;28;20027;-66
2022/03/16 02:15:39;;;;;;;50.95;20.80;;;;;;;9.93;100.00;100779.09;5110564;28;20699;-66
2022/03/16 02:18:06;;;;;;;46.38;19.98;;;;;;;9.89;100.00;100783.56;5109995;28;20062;-66
2022/03/16 02:20:31;;;;;;;44.50;19.90;;;;;;;9.93;100.00;100779.09;5109777;28;20035;-66
2022/03/16 02:22:59;;;;;;;48.53;21.45;;;;;;;9.93;100.00;100776.44;5110371;28;20087;-66
2022/03/16 02:25:26;;;;;;;46.80;20.48;;;;;;;9.90;100.00;100780.00;5110217;28;20035;-66
2022/03/16 02:27:52;;;;;;;44.03;20.48;;;;;;;9.89;100.00;100775.59;5109948;28;20020;-66
2022/03/16 02:30:20;;;;;;;46.47;21.33;;;;;;;9.92;100.00;100782.63;5109867;28;20118;-66
2022/03/16 02:32:46;;;;;;;49.22;19.73;;;;;;;9.92;100.00;100780.84;5090957;28;20476;-66
2022/03/16 02:35:11;;;;;;;42.97;19.05;;;;;;;9.90;100.00;100785.31;5089447;28;20024;-66
2022/03/16 02:37:38;;;;;;;48.45;20.25;;;;;;;9.94;100.00;100787.03;5092430;28;20034;-66
2022/03/16 02:40:06;;;;;;;51.42;19.90;;;;;;;9.91;100.00;100794.19;5089265;28;20114;-66
2022/03/16 02:42:32;;;;;;;48.53;20.83;;;;;;;9.97;100.00;100792.28;5088812;28;20035;-67
2022/03/16 02:44:57;;;;;;;42.50;19.45;;;;;;;9.93;100.00;100800.34;5089424;28;20032;-66
2022/03/16 02:47:24;;;;;;;51.40;20.58;;;;;;;9.90;100.00;100795.94;5089712;28;20024;-66
2022/03/16 02:49:51;;;;;;;52.25;20.23;;;;;;;9.88;100.00;100803.09;5089592;28;20107;-66
2022/03/16 02:52:16;;;;;;;45.40;20.55;;;;;;;9.96;100.00;100809.16;5089633;28;20028;-66
2022/03/16 02:54:41;;;;;;;42.55;19.77;;;;;;;10.02;100.00;100806.38;5089764;28;20739;-66
2022/03/16 02:57:07;;;;;;;43.20;18.73;;;;;;;10.03;100.00;100808.13;5089375;28;20124;-66
2022/03/16 02:59:34;;;;;;;47.05;20.80;;;;;;;10.02;100.00;100798.41;5089554;28;20103;-66
2022/03/16 03:02:00;;;;;;;48.10;20.60;;;;;;;10.05;100.00;100803.66;5090256;28;20031;-66
2022/03/16 03:04:25;;;;;;;46.38;20.35;;;;;;;10.00;100.00;100805.50;5090801;28;20020;-66
2022/03/16 03:06:51;;;;;;;48.45;20.63;;;;;;;9.99;100.00;100805.53;5088943;28;20028;-66
2022/03/16 03:09:16;;;;;;;45.25;20.58;;;;;;;9.99;100.00;100810.84;5088550;28;20463;-66
2022/03/16 03:11:42;;;;;;;52.78;20.98;;;;;;;9.91;100.00;100803.03;5107497;28;20561;-66
2022/03/16 03:14:07;;;;;;;49.80;21.83;;;;;;;9.93;100.00;100805.66;5109545;28;20032;-66
2022/03/16 03:16:32;;;;;;;49.13;20.60;;;;;;;9.92;100.00;100811.88;5109218;28;20020;-66
2022/03/16 03:18:58;;;;;;;53.20;21.23;;;;;;;9.94;100.00;100818.03;5108642;28;20043;-66
2022/03/16 03:21:23;;;;;;;54.05;20.75;;;;;;;9.93;100.00;100816.28;5109498;28;20045;-66
2022/03/16 03:23:48;;;;;;;45.63;21.15;;;;;;;9.92;100.00;100810.09;5109211;28;20137;-66
2022/03/16 03:26:14;;;;;;;55.63;23.33;;;;;;;9.89;100.00;100809.25;5108751;28;20104;-66
2022/03/16 03:28:39;;;;;;;46.35;20.95;;;;;;;9.90;100.00;100813.69;5107897;28;20386;-65
2022/03/16 03:31:05;;;;;;;49.42;20.05;;;;;;;9.95;100.00;100814.50;5090591;28;20032;-66
2022/03/16 03:33:30;;;;;;;57.22;19.67;;;;;;;9.99;100.00;100813.50;5088747;28;20028;-66
2022/03/16 03:35:56;;;;;;;48.83;21.45;;;;;;;9.99;100.00;100811.75;5088949;28;20038;-66
2022/03/16 03:38:21;;;;;;;52.85;21.92;;;;;;;10.01;100.00;100819.69;5088778;28;20024;-66
2022/03/16 03:40:47;;;;;;;46.20;20.15;;;;;;;10.01;100.00;100820.56;5106334;28;20839;-66
2022/03/16 03:43:12;;;;;;;54.58;21.30;;;;;;;10.00;100.00;100824.13;5106215;28;20035;-66
2022/03/16 03:45:38;;;;;;;47.67;19.25;;;;;;;10.00;100.00;100829.44;5111426;28;20020;-66
2022/03/16 03:48:04;;;;;;;47.97;19.92;;;;;;;9.97;100.00;100812.66;5113157;28;20511;-66
2022/03/16 03:50:29;;;;;;;52.38;19.27;;;;;;;9.99;100.00;100819.72;5094755;28;20126;-66
2022/03/16 03:52:55;;;;;;;49.10;19.95;;;;;;;10.04;100.00;100831.16;5109381;28;20019;-66
2022/03/16 03:55:22;;;;;;;52.00;21.33;;;;;;;10.04;100.00;100819.63;5103938;27;20020;-66
2022/03/16 03:57:48;;;;;;;53.35;23.95;;;;;;;9.99;100.00;100811.75;5105395;28;20039;-66
2022/03/16 04:00:14;;;;;;;48.92;19.98;;;;;;;10.04;100.00;100824.94;5112801;28;20089;-66
2022/03/16 04:02:46;;;;;;;51.30;20.23;;;;;;;10.06;100.00;100826.69;5094916;28;20035;-66
2022/03/16 04:05:12;;;;;;;59.35;22.08;;;;;;;10.07;100.00;100827.53;5095263;28;20020;-66
2022/03/16 04:07:37;;;;;;;64.40;24.38;;;;;;;10.10;100.00;100832.84;5092742;28;20046;-66
2022/03/16 04:10:03;;;;;;;50.75;20.45;;;;;;;10.09;100.00;100826.66;5112155;28;20027;-66
2022/03/16 04:12:28;;;;;;;55.90;20.35;;;;;;;10.05;100.00;100827.56;5112938;28;20016;-66
2022/03/16 04:14:54;;;;;;;52.47;21.65;;;;;;;9.92;100.00;100814.53;5112823;28;20043;-66
2022/03/16 04:17:19;;;;;;;51.78;22.02;;;;;;;10.00;100.00;100824.13;5099811;28;20020;-66
2022/03/16 04:19:45;;;;;;;51.55;22.38;;;;;;;10.06;100.00;100824.03;5112215;28;20108;-66
2022/03/16 04:22:11;;;;;;;51.80;20.08;;;;;;;10.10;100.00;100819.53;5112721;28;20098;-66
2022/03/16 04:24:37;;;;;;;53.97;20.65;;;;;;;10.11;100.00;100826.63;5112321;28;20080;-66
2022/03/16 04:27:02;;;;;;;52.22;21.55;;;;;;;10.13;100.00;100822.19;5111876;28;20027;-66
2022/03/16 04:29:28;;;;;;;55.95;21.13;;;;;;;10.08;100.00;100827.56;5112136;28;20040;-66
2022/03/16 04:31:53;;;;;;;47.08;19.40;;;;;;;10.09;100.00;100820.47;5100622;28;20425;-66
2022/03/16 04:34:19;;;;;;;51.22;21.50;;;;;;;10.09;100.00;100818.69;5092594;28;20024;-66
2022/03/16 04:36:44;;;;;;;54.63;21.67;;;;;;;10.10;100.00;100815.13;5093943;28;20035;-66
2022/03/16 04:39:10;;;;;;;57.92;23.73;;;;;;;10.12;100.00;100821.28;5091118;28;20655;-66
2022/03/16 04:41:35;;;;;;;55.38;22.77;;;;;;;10.14;100.00;100816.81;5091957;28;20111;-66
2022/03/16 04:44:00;;;;;;;57.42;20.73;;;;;;;10.08;100.00;100811.59;5091851;28;20035;-66
2022/03/16 04:46:26;;;;;;;55.63;23.40;;;;;;;10.01;100.00;100817.91;5091490;28;20106;-66
2022/03/16 04:48:52;;;;;;;57.08;20.20;;;;;;;10.04;100.00;100809.88;5091166;28;20028;-66
2022/03/16 04:51:17;;;;;;;51.17;20.52;;;;;;;10.00;100.00;100809.97;5091694;28;20081;-66
2022/03/16 04:53:43;;;;;;;58.50;21.70;;;;;;;10.02;100.00;100816.13;5091465;28;20097;-66
2022/03/16 04:56:08;;;;;;;50.42;20.00;;;;;;;10.00;100.00;100807.31;5091723;28;20020;-66
2022/03/16 04:58:33;;;;;;;58.90;22.33;;;;;;;9.98;100.00;100815.28;5090779;28;20053;-65
2022/03/16 05:00:59;;;;;;;47.90;18.85;;;;;;;10.01;100.00;100815.25;5093684;28;20020;-66
2022/03/16 05:03:24;;;;;;;55.35;19.13;;;;;;;10.03;100.00;100817.88;5091256;28;20765;-66
2022/03/16 05:05:50;;;;;;;51.17;21.08;;;;;;;9.99;100.00;100814.41;5091450;28;20032;-66
2022/03/16 05:08:15;;;;;;;68.10;22.92;;;;;;;10.01;100.00;100820.56;5095045;28;20015;-66
2022/03/16 05:10:41;;;;;;;49.88;18.17;;;;;;;10.02;100.00;100817.00;5110430;28;20023;-66
2022/03/16 05:13:06;;;;;;;64.40;22.95;;;;;;;10.00;100.00;100816.16;5111327;28;20027;-66
2022/03/16 05:15:32;;;;;;;54.28;22.77;;;;;;;9.99;100.00;100806.44;5111549;28;20035;-66
2022/03/16 05:17:57;;;;;;;60.63;18.90;;;;;;;9.80;100.00;100796.16;5111161;28;20059;-66
2022/03/16 05:20:23;;;;;;;58.05;22.17;;;;;;;10.02;100.00;100822.31;5111110;28;20112;-66
2022/03/16 05:22:51;;;;;;;53.72;21.65;;;;;;;9.94;100.00;100810.94;5111236;28;20030;-66
2022/03/16 05:25:19;;;;;;;71.80;23.00;;;;;;;10.02;100.00;100832.94;5111355;28;20036;-65
2022/03/16 05:27:44;;;;;;;54.78;19.58;;;;;;;10.02;100.00;100830.28;5111032;28;20024;-65
2022/03/16 05:30:12;;;;;;;50.80;21.02;;;;;;;10.01;100.00;100836.53;5111114;28;20023;-65
2022/03/16 05:32:41;;;;;;;44.08;18.65;;;;;;;10.00;100.00;100837.41;5077444;28;20027;-65
2022/03/16 05:35:08;;;;;;;49.10;20.70;;;;;;;9.99;100.00;100840.09;5090908;28;20420;-65
2022/03/16 05:37:33;;;;;;;50.33;19.38;;;;;;;9.97;100.00;100833.91;5090181;28;20502;-65
2022/03/16 05:39:59;;;;;;;55.65;21.10;;;;;;;9.94;100.00;100833.97;5090453;28;20028;-65
2022/03/16 05:42:24;;;;;;;52.22;23.23;;;;;;;9.96;100.00;100837.50;5080678;28;20072;-65
2022/03/16 05:44:54;;;;;;;54.33;20.48;;;;;;;9.95;100.00;100833.94;5110875;28;20067;-65
2022/03/16 05:47:21;;;;;;;58.08;21.55;;;;;;;9.96;100.00;100827.75;5092690;28;20016;-65
2022/03/16 05:49:46;;;;;;;47.35;21.05;;;;;;;10.01;100.00;100831.22;5098451;28;20561;-66
2022/03/16 05:52:12;;;;;;;45.22;18.50;;;;;;;10.00;100.00;100832.09;5109585;28;20028;-65
2022/03/16 05:54:38;;;;;;;57.15;21.08;;;;;;;10.01;100.00;100836.53;5111410;28;20027;-65
2022/03/16 05:57:03;;;;;;;56.25;20.00;;;;;;;9.97;100.00;100831.25;5110646;28;20030;-65
2022/03/16 05:59:29;;;;;;;52.05;20.77;;;;;;;10.00;100.00;100834.75;5110143;28;20122;-65
2022/03/16 06:01:54;;;;;;;61.70;19.05;;;;;;;10.01;100.00;100833.88;5101153;28;20081;-65
2022/03/16 06:04:19;;;;;;;52.10;20.23;;;;;;;10.05;100.00;100840.88;5092378;28;20111;-65
2022/03/16 06:06:45;;;;;;;50.58;19.50;;;;;;;10.11;100.00;100846.13;5090317;28;20024;-65
2022/03/16 06:09:10;;;;;;;52.03;18.17;;;;;;;10.05;100.00;100842.66;5101775;28;20436;-65
2022/03/16 06:11:39;;;;;;;55.53;20.88;;;;;;;10.04;100.00;100840.91;5110665;28;20036;-66
2022/03/16 06:14:04;;;;;;;50.33;19.52;;;;;;;10.09;100.00;100847.03;5110275;28;20409;-66
2022/03/16 06:16:29;;;;;;;53.92;20.98;;;;;;;10.12;100.00;100853.19;5110411;28;20076;-66
2022/03/16 06:18:55;;;;;;;54.47;18.40;;;;;;;10.13;100.00;100860.25;5090990;28;20048;-66
2022/03/16 06:21:20;;;;;;;54.42;18.83;;;;;;;10.12;100.00;100855.84;5108089;28;20546;-66
2022/03/16 06:23:46;;;;;;;45.92;19.08;;;;;;;10.09;100.00;100866.53;5091119;28;20031;-66
2022/03/16 06:26:11;;;;;;;48.33;21.80;;;;;;;10.10;100.00;100852.31;5090131;28;20026;-66
2022/03/16 06:28:36;;;;;;;58.30;21.70;;;;;;;10.14;100.00;100859.38;5089793;28;20028;-66
2022/03/16 06:31:02;;;;;;;53.65;19.73;;;;;;;10.21;100.00;100862.78;5092050;28;20028;-66
2022/03/16 06:33:28;;;;;;;53.47;19.98;;;;;;;10.18;100.00;100869.03;5088359;28;20120;-66
2022/03/16 06:35:54;;;;;;;51.78;20.92;;;;;;;10.15;100.00;100850.47;5093513;28;20553;-65
2022/03/16 06:38:19;;;;;;;50.88;19.10;;;;;;;10.26;100.00;100864.44;5092447;28;20027;-65
2022/03/16 06:40:44;;;;;;;53.03;20.50;;;;;;;10.25;100.00;100873.34;5096541;28;20095;-65
2022/03/16 06:43:10;;;;;;;49.60;18.20;;;;;;;10.27;100.00;100871.53;5090767;28;20027;-65
2022/03/16 06:45:35;;;;;;;55.63;19.60;;;;;;;10.15;100.00;100866.41;5098549;28;20031;-65
2022/03/16 06:48:02;;;;;;;49.75;19.30;;;;;;;10.16;100.00;100856.66;5098421;28;20863;-65
2022/03/16 06:50:29;;;;;;;47.35;19.38;;;;;;;10.14;100.00;100885.94;5097957;28;20459;-65
2022/03/16 06:52:55;;;;;;;52.17;18.98;;;;;;;10.18;100.00;100890.28;5099131;28;20042;-65
2022/03/16 06:55:22;;;;;;;46.10;18.83;;;;;;;10.18;100.00;100898.25;5099926;28;20015;-65
2022/03/16 06:57:47;;;;;;;49.60;20.33;;;;;;;10.25;100.00;100905.25;5094551;28;20032;-65
2022/03/16 07:00:14;;;;;;;51.90;22.40;;;;;;;10.21;100.00;100903.53;5097676;28;20084;-65
2022/03/16 07:02:57;;;;;;;47.95;19.98;;;;;;;10.30;100.00;100898.06;5105723;28;20027;-65
2022/03/16 07:05:28;;;;;;;50.05;20.90;;;;;;;10.33;100.00;100905.97;5101219;28;20059;-65
2022/03/16 07:07:58;;;;;;;48.83;18.85;;;;;;;10.36;100.00;100908.56;5098217;28;20032;-65
2022/03/16 07:10:24;;;;;;;43.72;20.13;;;;;;;10.41;100.00;100905.88;5096888;28;20043;-65
2022/03/16 07:12:50;;;;;;;44.03;18.50;;;;;;;10.44;100.00;100904.00;5090710;28;20517;-65
2022/03/16 07:15:15;;;;;;;41.15;19.92;;;;;;;10.44;100.00;100904.00;5089573;28;20030;-65
2022/03/16 07:17:41;;;;;;;44.80;19.50;;;;;;;10.46;100.00;100899.53;5088900;28;20479;-65
2022/03/16 07:20:07;;;;;;;46.28;18.63;;;;;;;10.46;100.00;100902.19;5089824;28;20016;-65
2022/03/16 07:22:36;;;;;;;43.40;19.58;;;;;;;10.55;100.00;100909.13;5093412;28;20032;-65
2022/03/16 07:25:09;;;;;;;42.83;19.90;;;;;;;10.66;100.00;100914.28;5093018;28;20063;-65
2022/03/16 07:27:38;;;;;;;44.45;18.65;;;;;;;10.73;100.00;100914.13;5103687;28;20024;-65
2022/03/16 07:30:09;;;;;;;42.80;18.88;;;;;;;10.79;100.00;100913.13;5098711;28;20110;-65
2022/03/16 07:32:39;;;;;;;46.13;20.45;;;;;;;10.85;100.00;100913.00;5091489;27;20063;-65
2022/03/16 07:35:09;;;;;;;42.60;19.13;;;;;;;10.89;100.00;100910.25;5095794;28;20020;-66
2022/03/16 07:37:36;;;;;;;44.72;18.90;;;;;;;10.91;100.00;100913.75;5092535;28;20028;-66
2022/03/16 07:40:03;;;;;;;42.50;19.13;;;;;;;10.92;100.00;100911.97;5109360;28;20036;-66
2022/03/16 07:42:32;;;;;;;45.08;19.83;;;;;;;10.90;100.00;100916.44;5094952;28;20158;-66
2022/03/16 07:44:58;;;;;;;43.13;17.17;;;;;;;10.88;100.00;100918.25;5100992;28;20074;-66
2022/03/16 07:47:25;;;;;;;41.53;18.10;;;;;;;10.77;100.00;100899.84;5094237;28;20032;-66
2022/03/16 07:49:52;;;;;;;45.03;19.55;;;;;;;10.90;100.00;100919.13;5100288;28;20055;-66
2022/03/16 07:52:20;;;;;;;44.40;19.20;;;;;;;11.00;100.00;100912.72;5092354;28;20028;-66
2022/03/16 07:54:45;;;;;;;41.65;17.90;;;;;;;11.03;100.00;100921.50;5094799;28;20024;-65
2022/03/16 07:57:11;;;;;;;40.30;17.70;;;;;;;11.05;100.00;100922.38;5095139;28;20039;-65
2022/03/16 07:59:36;;;;;;;38.60;17.73;;;;;;;11.06;100.00;100917.91;5091927;28;20054;-65
2022/03/16 08:02:02;;;;;;;40.85;17.90;;;;;;;11.08;100.00;100918.75;5091551;28;20093;-65
2022/03/16 08:04:27;;;;;;;45.72;18.98;;;;;;;11.16;100.00;100914.13;5098530;28;20091;-64
2022/03/16 08:06:53;;;;;;;40.05;17.48;;;;;;;11.19;100.00;100908.75;5112763;28;20035;-65
2022/03/16 08:09:18;;;;;;;39.65;17.55;;;;;;;11.22;99.71;100903.38;5099928;28;20027;-66
2022/03/16 08:11:43;;;;;;;40.92;19.48;;;;;;;11.15;100.00;100897.28;5097586;28;20387;-66
2022/03/16 08:14:09;;;;;;;40.58;18.45;;;;;;;11.26;100.00;100897.94;5106801;28;20046;-66
2022/03/16 08:16:34;;;;;;;37.00;16.90;;;;;;;11.32;99.73;100888.94;5109125;28;20019;-66
2022/03/16 08:19:00;;;;;;;37.85;16.50;;;;;;;11.37;99.16;100887.94;5090215;28;20040;-65
2022/03/16 08:21:25;;;;;;;44.15;17.35;;;;;;;11.43;98.84;100882.47;5091821;28;20189;-65
2022/03/16 08:23:51;;;;;;;39.35;17.73;;;;;;;11.53;98.88;100888.47;5073620;28;20061;-65
2022/03/16 08:26:17;;;;;;;37.25;17.27;;;;;;;11.51;98.13;100882.31;5103221;28;20031;-65
2022/03/16 08:28:43;;;;;;;35.13;17.20;;;;;;;11.42;97.52;100878.06;5110302;28;20024;-65
2022/03/16 08:31:10;;;;;;;37.30;18.48;;;;;;;11.53;96.66;100885.81;5098666;28;20055;-65
2022/03/16 08:33:35;;;;;;;36.53;17.05;;;;;;;11.55;96.32;100881.31;5110920;28;20126;-65
2022/03/16 08:36:02;;;;;;;41.15;17.20;;;;;;;11.58;96.76;100874.13;5100515;28;20118;-65
2022/03/16 08:38:30;;;;;;;38.20;18.10;;;;;;;11.63;96.63;100882.91;5090672;28;20024;-65
2022/03/16 08:40:56;;;;;;;40.38;17.58;;;;;;;11.58;96.52;100870.59;5098854;28;20399;-65
2022/03/16 08:43:21;;;;;;;39.83;16.70;;;;;;;11.64;96.10;100886.47;5099810;28;20039;-65
2022/03/16 08:45:47;;;;;;;35.55;17.08;;;;;;;11.80;96.99;100890.53;5091775;28;20024;-65
2022/03/16 08:48:14;;;;;;;36.55;15.85;;;;;;;11.94;96.36;100896.44;5091231;28;20027;-65
2022/03/16 08:50:40;;;;;;;37.92;16.38;;;;;;;11.96;95.56;100894.56;5091246;28;20028;-65
2022/03/16 08:53:05;;;;;;;35.75;15.55;;;;;;;12.02;95.77;100899.78;5098616;28;20023;-65
2022/03/16 08:55:31;;;;;;;33.78;17.55;;;;;;;12.13;95.42;100903.03;5100127;28;20387;-65
2022/03/16 08:57:57;;;;;;;39.83;17.55;;;;;;;12.16;95.05;100902.97;5091807;28;20445;-65
2022/03/16 09:00:23;;;;;;;36.25;16.75;;;;;;;12.27;93.47;100900.03;5091363;28;20134;-65
2022/03/16 09:02:49;;;;;;;35.70;16.20;;;;;;;12.25;93.23;100883.19;5099244;28;20027;-65
2022/03/16 09:05:15;;;;;;;39.60;17.00;;;;;;;12.31;92.23;100891.91;5105062;28;20036;-65
2022/03/16 09:07:41;;;;;;;35.72;16.75;;;;;;;12.31;92.50;100883.91;5111598;28;20023;-65
2022/03/16 09:10:08;;;;;;;35.58;16.42;;;;;;;12.27;92.02;100884.91;5111707;28;20034;-65
2022/03/16 09:12:34;;;;;;;35.63;18.30;;;;;;;12.33;92.41;100876.75;5111297;28;20020;-65
2022/03/16 09:15:00;;;;;;;39.72;16.73;;;;;;;12.38;91.95;100874.84;5111625;28;20030;-65
2022/03/16 09:17:25;;;;;;;39.70;18.95;;;;;;;12.41;91.70;100872.09;5099711;28;20023;-65
2022/03/16 09:19:52;;;;;;;37.35;19.10;;;;;;;12.39;90.95;100867.72;5090886;28;20051;-65
2022/03/16 09:22:18;;;;;;;37.45;16.60;;;;;;;12.45;90.94;100864.88;5091449;28;20365;-65
2022/03/16 09:24:43;;;;;;;40.33;18.17;;;;;;;12.32;90.69;100872.31;5091203;28;20031;-65
2022/03/16 09:27:09;;;;;;;36.50;17.15;;;;;;;12.39;91.91;100873.91;5093708;28;20055;-65
2022/03/16 09:29:35;;;;;;;33.85;16.27;;;;;;;12.50;92.26;100866.53;5090572;28;20020;-65
2022/03/16 09:32:01;;;;;;;31.42;15.50;;;;;;;12.39;89.93;100868.56;5090622;28;20028;-65
2022/03/16 09:34:27;;;;;;;37.70;16.30;;;;;;;12.42;89.75;100857.81;5091016;28;20357;-65
2022/03/16 09:36:53;;;;;;;33.78;16.85;;;;;;;12.51;90.33;100862.91;5090797;28;20460;-65
2022/03/16 09:39:18;;;;;;;30.80;15.88;;;;;;;12.71;90.63;100860.59;5092949;28;20173;-65
2022/03/16 09:41:43;;;;;;;33.95;16.15;;;;;;;12.68;89.61;100860.69;5090562;28;20024;-65
2022/03/16 09:44:10;;;;;;;35.58;15.77;;;;;;;12.74;89.05;100862.28;5090987;28;20028;-65
2022/03/16 09:46:36;;;;;;;32.42;14.23;;;;;;;12.71;89.07;100865.94;5090405;28;20024;-65
2022/03/16 09:49:07;;;;;;;30.05;15.20;;;;;;;12.67;89.01;100864.25;5092577;28;20031;-65
2022/03/16 09:51:35;;;;;;;33.83;15.77;;;;;;;12.74;88.97;100863.16;5090264;28;20034;-65
2022/03/16 09:54:02;;;;;;;29.50;14.20;;;;;;;12.80;89.50;100854.13;5090535;28;20020;-65
2022/03/16 09:56:28;;;;;;;32.15;16.30;;;;;;;12.90;89.38;100856.47;5092814;28;20082;-65
2022/03/16 09:58:53;;;;;;;28.90;14.48;;;;;;;12.88;88.16;100852.97;5090150;28;20085;-65
2022/03/16 10:01:19;;;;;;;37.90;17.05;;;;;;;13.02;88.63;100858.81;5089427;28;20030;-65
2022/03/16 10:03:48;;;;;;;35.20;14.93;;;;;;;13.12;89.18;100852.31;5098819;28;20470;-65
2022/03/16 10:06:16;;;;;;;33.20;15.82;;;;;;;13.13;88.27;100854.03;5107117;28;20080;-65
2022/03/16 10:13:13;;;;;;;32.70;15.75;;;;;;;13.17;87.14;100849.47;5110360;28;20051;-65
2022/03/16 10:14:14;;;;;;;39.53;17.63;;;;;;;13.24;86.85;100835.88;5110332;28;20038;-65
2022/03/16 10:19:50;;;;;;;32.40;16.42;;;;;;;13.46;85.37;100837.91;5089466;28;20055;-65
2022/03/16 10:22:25;;;;;;;34.53;15.10;;;;;;;13.38;85.41;100848.81;5090444;28;20027;-65
2022/03/16 10:24:54;;;;;;;31.30;15.45;;;;;;;13.40;85.35;100851.44;5090498;28;20063;-65
2022/03/16 10:27:20;;;;;;;30.45;16.88;;;;;;;13.40;85.52;100835.41;5089459;28;20052;-65
2022/03/16 10:29:46;;;;;;;34.50;15.32;;;;;;;13.34;86.17;100840.97;5089745;28;20027;-65
2022/03/16 10:32:12;;;;;;;35.78;16.48;;;;;;;13.20;86.49;100850.28;5089599;28;20028;-65
2022/03/16 10:34:49;;;;;;;34.17;16.20;;;;;;;13.13;87.15;100843.34;5090094;28;20491;-65
2022/03/16 10:37:20;;;;;;;33.33;15.95;;;;;;;13.21;87.48;100844.00;5089814;28;20047;-65
2022/03/16 10:39:48;;;;;;;32.42;17.08;;;;;;;13.30;87.63;100836.63;5089201;28;20058;-65
2022/03/16 10:48:25;;;;;;;32.40;15.80;;;;;;;13.76;87.06;100845.81;5089540;28;20133;-65
2022/03/16 10:50:57;;;;;;;37.15;17.88;;;;;;;13.96;85.84;100832.69;5089233;28;20041;-65
2022/03/16 10:53:28;;;;;;;33.35;16.70;;;;;;;14.09;85.53;100833.13;5089293;28;20109;-65
2022/03/16 10:55:55;;;;;;;40.25;18.17;;;;;;;14.11;83.51;100842.00;5073745;28;20395;-65
2022/03/16 10:58:23;;;;;;;32.20;17.20;;;;;;;14.08;83.41;100836.75;5093604;28;20055;-65
2022/03/16 11:00:51;;;;;;;35.40;17.05;;;;;;;13.90;83.89;100827.53;5093656;28;20032;-65
2022/03/16 11:03:22;;;;;;;40.10;17.30;;;;;;;13.87;84.65;100816.06;5095916;28;20023;-65
2022/03/16 11:05:49;;;;;;;34.95;17.65;;;;;;;13.93;85.54;100814.06;5093242;28;20032;-65
2022/03/16 11:08:15;;;;;;;33.67;17.75;;;;;;;13.97;85.18;100817.50;5093179;28;20028;-65
2022/03/16 11:10:42;;;;;;;35.03;17.58;;;;;;;13.96;85.17;100823.78;5093619;28;20027;-65
2022/03/16 11:13:28;;;;;;;37.65;16.35;;;;;;;14.01;85.06;100819.16;5093804;28;20027;-65
2022/03/16 11:16:00;;;;;;;30.45;15.95;;;;;;;14.12;84.28;100812.50;5093648;28;20467;-65